Time,TemperatureF,DewpointF,PressureIn,WindDirection,WindDirectionDegrees,WindSpeedMPH,WindSpeedGustMPH,Humidity,HourlyPrecipIn,Conditions,Clouds,dailyrainin,SoftwareType,DateUTC
2013-01-15 00:05:00,9.3,-7.3,29.15,SE,143,0.0,0.0,46,0.00,,---,0.00,VWS V14.01,2013-01-15 06:05:00,
2013-01-15 00:15:00,9.1,-7.4,29.15,South,170,3.6,3.6,46,0.00,,---,0.00,VWS V14.01,2013-01-15 06:15:00,
2013-01-15 00:20:00,9.3,-7.3,29.15,SE,127,0.0,0.0,46,0.00,,---,0.00,VWS V14.01,2013-01-15 06:20:00,
2013-01-15 00:25:00,9.3,-7.3,29.15,SSE,161,3.6,3.6,46,0.00,,---,0.00,VWS V14.01,2013-01-15 06:25:00,
2013-01-15 00:30:00,9.3,-7.3,29.15,SE,141,0.0,0.0,46,0.00,,---,0.00,VWS V14.01,2013-01-15 06:30:00,
2013-01-15 00:40:00,9.5,-7.1,29.15,SE,141,0.0,0.0,46,0.00,,---,0.00,VWS V14.01,2013-01-15 06:40:00,
2013-01-15 00:45:00,9.5,-7.1,29.15,SE,141,0.0,0.0,46,0.00,,---,0.00,VWS V14.01,2013-01-15 06:45:00,
2013-01-15 00:55:00,9.7,-6.9,29.15,SE,141,0.0,0.0,46,0.00,,---,0.00,VWS V14.01,2013-01-15 06:55:00,
2013-01-15 01:05:00,9.7,-6.9,29.15,SE,141,0.0,0.0,46,0.00,,---,0.00,VWS V14.01,2013-01-15 07:05:00,
2013-01-15 01:10:00,9.7,-6.9,29.15,SE,141,0.0,0.0,46,0.00,,---,0.00,VWS V14.01,2013-01-15 07:10:00,
2013-01-15 01:20:00,9.7,-6.9,29.15,SE,141,0.0,0.0,46,0.00,,---,0.00,VWS V14.01,2013-01-15 07:20:00,
2013-01-15 01:25:00,9.7,-6.9,29.15,SE,141,0.0,0.0,46,0.00,,---,0.00,VWS V14.01,2013-01-15 07:25:00,
2013-01-15 01:30:00,9.7,-6.9,29.15,SE,141,0.0,0.0,46,0.00,,---,0.00,VWS V14.01,2013-01-15 07:30:00,
2013-01-15 01:40:00,9.9,-6.8,29.15,SE,141,0.0,0.0,46,0.00,,---,0.00,VWS V14.01,2013-01-15 07:40:00,
2013-01-15 01:45:00,10.0,-6.6,29.15,SE,141,0.0,0.0,46,0.00,,---,0.00,VWS V14.01,2013-01-15 07:45:00,
2013-01-15 01:50:00,10.0,-6.6,29.15,SE,141,0.0,0.0,46,0.00,,---,0.00,VWS V14.01,2013-01-15 07:50:00,
2013-01-15 02:00:00,10.2,-6.4,29.15,SE,141,0.0,0.0,46,0.00,,---,0.00,VWS V14.01,2013-01-15 08:00:00,
2013-01-15 02:05:00,10.2,-6.4,29.15,SE,141,0.0,0.0,46,0.00,,---,0.00,VWS V14.01,2013-01-15 08:05:00,
2013-01-15 02:15:00,10.6,-6.1,29.15,WSW,246,0.0,0.0,46,0.00,,---,0.00,VWS V14.01,2013-01-15 08:15:00,
2013-01-15 02:25:00,10.9,-5.8,29.15,WSW,246,4.0,4.0,46,0.00,,---,0.00,VWS V14.01,2013-01-15 08:25:00,
2013-01-15 02:30:00,11.1,-5.6,29.15,WSW,247,0.0,0.0,46,0.00,,---,0.00,VWS V14.01,2013-01-15 08:30:00,
2013-01-15 02:40:00,11.5,-5.3,29.15,WSW,257,3.6,3.6,46,0.00,,---,0.00,VWS V14.01,2013-01-15 08:40:00,
2013-01-15 02:50:00,11.7,-5.1,29.15,WSW,240,3.6,3.6,46,0.00,,---,0.00,VWS V14.01,2013-01-15 08:50:00,
2013-01-15 02:55:00,11.7,-5.1,29.15,SW,227,4.9,4.9,46,0.00,,---,0.00,VWS V14.01,2013-01-15 08:55:00,
2013-01-15 03:05:00,11.5,-5.3,29.15,WSW,249,3.1,3.1,46,0.00,,---,0.00,VWS V14.01,2013-01-15 09:05:00,
2013-01-15 03:15:00,11.3,-5.4,29.15,West,264,3.1,3.1,46,0.00,,---,0.00,VWS V14.01,2013-01-15 09:15:00,
2013-01-15 03:25:00,11.3,-5.4,29.15,WSW,239,2.2,2.2,46,0.00,,---,0.00,VWS V14.01,2013-01-15 09:25:00,
2013-01-15 03:30:00,11.1,-5.6,29.15,WSW,249,0.0,0.0,46,0.00,,---,0.00,VWS V14.01,2013-01-15 09:30:00,
2013-01-15 03:35:00,11.1,-5.6,29.15,WSW,248,0.0,0.0,46,0.00,,---,0.00,VWS V14.01,2013-01-15 09:35:00,
2013-01-15 03:40:00,11.1,-5.6,29.15,WSW,249,0.0,0.0,46,0.00,,---,0.00,VWS V14.01,2013-01-15 09:40:00,
2013-01-15 03:45:00,11.1,-5.6,29.15,WSW,249,0.0,0.0,46,0.00,,---,0.00,VWS V14.01,2013-01-15 09:45:00,
2013-01-15 03:50:00,10.9,-5.8,29.15,WSW,249,0.0,0.0,46,0.00,,---,0.00,VWS V14.01,2013-01-15 09:50:00,
2013-01-15 04:00:00,10.8,-5.9,29.15,WSW,249,0.0,0.0,46,0.00,,---,0.00,VWS V14.01,2013-01-15 10:00:00,
2013-01-15 04:05:00,10.8,-5.9,29.15,WSW,249,0.0,0.0,46,0.00,,---,0.00,VWS V14.01,2013-01-15 10:05:00,
2013-01-15 04:10:00,10.6,-6.1,29.15,WSW,249,0.0,0.0,46,0.00,,---,0.00,VWS V14.01,2013-01-15 10:10:00,
2013-01-15 04:15:00,10.6,-6.1,29.15,WSW,249,0.0,0.0,46,0.00,,---,0.00,VWS V14.01,2013-01-15 10:15:00,
2013-01-15 04:20:00,10.4,-6.3,29.15,WSW,249,0.0,0.0,46,0.00,,---,0.00,VWS V14.01,2013-01-15 10:20:00,
2013-01-15 04:30:00,10.4,-6.3,29.15,WSW,249,0.0,0.0,46,0.00,,---,0.00,VWS V14.01,2013-01-15 10:30:00,
2013-01-15 04:40:00,10.4,-6.3,29.15,WSW,249,0.0,0.0,46,0.00,,---,0.00,VWS V14.01,2013-01-15 10:40:00,
2013-01-15 04:50:00,10.2,-6.4,29.12,WSW,249,0.0,0.0,46,0.00,,---,0.00,VWS V14.01,2013-01-15 10:50:00,
2013-01-15 05:00:00,10.2,-6.4,29.12,WSW,249,0.0,0.0,46,0.00,,---,0.00,VWS V14.01,2013-01-15 11:00:00,
2013-01-15 05:05:00,10.2,-6.4,29.12,WSW,249,0.0,0.0,46,0.00,,---,0.00,VWS V14.01,2013-01-15 11:05:00,
2013-01-15 05:15:00,10.2,-6.4,29.12,WSW,249,0.0,0.0,46,0.00,,---,0.00,VWS V14.01,2013-01-15 11:15:00,
2013-01-15 05:20:00,10.0,-6.6,29.12,WSW,249,0.0,0.0,46,0.00,,---,0.00,VWS V14.01,2013-01-15 11:20:00,
2013-01-15 05:25:00,10.0,-6.6,29.12,WSW,249,0.0,0.0,46,0.00,,---,0.00,VWS V14.01,2013-01-15 11:25:00,
2013-01-15 05:35:00,10.0,-6.6,29.12,WSW,249,0.0,0.0,46,0.00,,---,0.00,VWS V14.01,2013-01-15 11:35:00,
2013-01-15 05:40:00,10.0,-6.6,29.12,WSW,249,0.0,0.0,46,0.00,,---,0.00,VWS V14.01,2013-01-15 11:40:00,
2013-01-15 05:50:00,9.9,-6.8,29.12,WSW,249,0.0,0.0,46,0.00,,---,0.00,VWS V14.01,2013-01-15 11:50:00,
2013-01-15 05:55:00,9.7,-6.9,29.12,WSW,249,0.0,0.0,46,0.00,,---,0.00,VWS V14.01,2013-01-15 11:55:00,
2013-01-15 06:00:00,9.7,-6.9,29.12,WSW,249,0.0,0.0,46,0.00,,---,0.00,VWS V14.01,2013-01-15 12:00:00,
2013-01-15 06:05:00,9.7,-6.9,29.12,WSW,249,0.0,0.0,46,0.00,,---,0.00,VWS V14.01,2013-01-15 12:05:00,
2013-01-15 06:15:00,9.9,-6.8,29.12,WSW,249,0.0,0.0,46,0.00,,---,0.00,VWS V14.01,2013-01-15 12:15:00,
2013-01-15 06:25:00,10.0,-6.6,29.12,WSW,249,0.0,0.0,46,0.00,,---,0.00,VWS V14.01,2013-01-15 12:25:00,
2013-01-15 06:35:00,10.0,-6.6,29.12,WSW,249,0.0,0.0,46,0.00,,---,0.00,VWS V14.01,2013-01-15 12:35:00,
2013-01-15 06:40:00,9.9,-6.8,29.12,WSW,249,0.0,0.0,46,0.00,,---,0.00,VWS V14.01,2013-01-15 12:40:00,
2013-01-15 06:45:00,9.9,-6.8,29.12,WSW,249,0.0,0.0,46,0.00,,---,0.00,VWS V14.01,2013-01-15 12:45:00,
2013-01-15 06:55:00,9.5,-7.1,29.12,WSW,249,0.0,0.0,46,0.00,,---,0.00,VWS V14.01,2013-01-15 12:55:00,
2013-01-15 07:00:00,9.5,-7.1,29.12,WSW,249,0.0,0.0,46,0.00,,---,0.00,VWS V14.01,2013-01-15 13:00:00,
2013-01-15 07:10:00,9.5,-7.1,29.12,WSW,249,0.0,0.0,46,0.00,,---,0.00,VWS V14.01,2013-01-15 13:10:00,
2013-01-15 07:20:00,9.5,-7.1,29.12,WSW,249,0.0,0.0,46,0.00,,---,0.00,VWS V14.01,2013-01-15 13:20:00,
2013-01-15 07:25:00,9.5,-7.1,29.12,WSW,249,0.0,0.0,46,0.00,,---,0.00,VWS V14.01,2013-01-15 13:25:00,
2013-01-15 07:35:00,9.7,-6.9,29.12,WSW,249,0.0,0.0,46,0.00,,---,0.00,VWS V14.01,2013-01-15 13:35:00,
2013-01-15 07:40:00,9.9,-6.8,29.12,WSW,249,0.0,0.0,46,0.00,,---,0.00,VWS V14.01,2013-01-15 13:40:00,
2013-01-15 07:45:00,9.7,-6.9,29.12,WSW,249,0.0,0.0,46,0.00,,---,0.00,VWS V14.01,2013-01-15 13:45:00,
2013-01-15 07:55:00,9.7,-6.9,29.12,WSW,249,0.0,0.0,46,0.00,,---,0.00,VWS V14.01,2013-01-15 13:55:00,
2013-01-15 08:05:00,9.7,-6.9,29.12,WSW,249,0.0,0.0,46,0.00,,---,0.00,VWS V14.01,2013-01-15 14:05:00,
2013-01-15 08:10:00,9.7,-6.9,29.12,WSW,249,0.0,0.0,46,0.00,,---,0.00,VWS V14.01,2013-01-15 14:10:00,
2013-01-15 08:20:00,10.2,-6.4,29.12,WSW,249,0.0,0.0,46,0.00,,---,0.00,VWS V14.01,2013-01-15 14:20:00,
2013-01-15 08:30:00,10.4,-6.3,29.12,WSW,249,0.0,0.0,46,0.00,,---,0.00,VWS V14.01,2013-01-15 14:30:00,
2013-01-15 08:35:00,10.6,-6.1,29.12,WSW,249,0.0,0.0,46,0.00,,---,0.00,VWS V14.01,2013-01-15 14:35:00,
2013-01-15 08:45:00,10.9,-5.8,29.12,WSW,249,0.0,0.0,46,0.00,,---,0.00,VWS V14.01,2013-01-15 14:45:00,
2013-01-15 08:55:00,11.7,-5.1,29.12,SSE,157,0.0,0.0,46,0.00,,---,0.00,VWS V14.01,2013-01-15 14:55:00,
2013-01-15 09:05:00,12.2,-4.6,29.12,SSE,158,3.1,3.1,46,0.00,,---,0.00,VWS V14.01,2013-01-15 15:05:00,
2013-01-15 09:15:00,12.9,-4.0,29.12,SE,125,0.0,0.0,46,0.00,,---,0.00,VWS V14.01,2013-01-15 15:15:00,
2013-01-15 09:20:00,13.3,-3.6,29.12,ESE,107,0.0,0.0,46,0.00,,---,0.00,VWS V14.01,2013-01-15 15:20:00,
2013-01-15 09:30:00,13.8,-3.1,29.12,SSE,153,3.1,3.1,46,0.00,,---,0.00,VWS V14.01,2013-01-15 15:30:00,
2013-01-15 09:40:00,14.7,7.7,29.12,SSW,194,0.0,0.0,73,0.00,,---,0.00,VWS V14.01,2013-01-15 15:40:00,
2013-01-15 09:45:00,15.3,8.2,29.09,ESE,122,2.2,2.2,73,0.00,,---,0.00,VWS V14.01,2013-01-15 15:45:00,
2013-01-15 09:50:00,15.8,8.4,29.09,SSE,147,3.6,3.6,72,0.00,,---,0.00,VWS V14.01,2013-01-15 15:50:00,
2013-01-15 09:55:00,16.3,8.6,29.09,SE,146,3.6,3.6,71,0.00,,---,0.00,VWS V14.01,2013-01-15 15:55:00,
2013-01-15 10:05:00,17.1,8.0,29.09,South,178,4.0,4.0,67,0.00,,---,0.00,VWS V14.01,2013-01-15 16:05:00,
2013-01-15 10:15:00,18.3,7.5,29.09,SSW,208,5.4,5.4,62,0.00,,---,0.00,VWS V14.01,2013-01-15 16:15:00,
2013-01-15 10:25:00,18.7,6.7,29.09,SE,133,4.9,4.9,59,0.00,,---,0.00,VWS V14.01,2013-01-15 16:25:00,
2013-01-15 10:30:00,18.9,6.5,29.09,SSE,163,0.0,0.0,58,0.00,,---,0.00,VWS V14.01,2013-01-15 16:30:00,
2013-01-15 10:40:00,19.4,7.1,29.09,South,177,5.8,5.8,58,0.00,,---,0.00,VWS V14.01,2013-01-15 16:40:00,
2013-01-15 10:50:00,19.9,6.8,29.09,SSE,149,0.0,0.0,56,0.00,,---,0.00,VWS V14.01,2013-01-15 16:50:00,
2013-01-15 10:55:00,20.3,6.7,29.09,SW,214,0.0,0.0,55,0.00,,---,0.00,VWS V14.01,2013-01-15 16:55:00,
2013-01-15 11:05:00,21.0,7.0,29.09,SE,140,3.1,3.1,54,0.00,,---,0.00,VWS V14.01,2013-01-15 17:05:00,
2013-01-15 11:15:00,21.9,7.0,29.09,SSE,156,4.9,4.9,52,0.00,,---,0.00,VWS V14.01,2013-01-15 17:15:00,
2013-01-15 11:20:00,22.3,6.9,29.09,WSW,244,3.6,3.6,51,0.00,,---,0.00,VWS V14.01,2013-01-15 17:20:00,
2013-01-15 11:25:00,22.3,6.0,29.09,West,267,4.0,4.0,49,0.00,,---,0.00,VWS V14.01,2013-01-15 17:25:00,
2013-01-15 11:35:00,22.6,6.4,29.06,SW,218,3.1,3.1,49,0.00,,---,0.00,VWS V14.01,2013-01-15 17:35:00,
2013-01-15 11:40:00,23.0,6.2,29.06,SW,232,2.7,2.7,48,0.00,,---,0.00,VWS V14.01,2013-01-15 17:40:00,
2013-01-15 11:50:00,24.1,6.8,29.06,South,180,2.7,2.7,47,0.00,,---,0.00,VWS V14.01,2013-01-15 17:50:00,
2013-01-15 12:00:00,24.1,6.3,29.06,WSW,245,2.7,2.7,46,0.00,,---,0.00,VWS V14.01,2013-01-15 18:00:00,
2013-01-15 12:10:00,24.8,7.0,29.06,SW,224,3.6,3.6,46,0.00,,---,0.00,VWS V14.01,2013-01-15 18:10:00,
2013-01-15 12:15:00,25.3,7.0,29.03,SE,144,4.0,4.0,45,0.00,,---,0.00,VWS V14.01,2013-01-15 18:15:00,
2013-01-15 12:25:00,25.7,7.3,29.03,SSW,213,5.4,5.4,45,0.00,,---,0.00,VWS V14.01,2013-01-15 18:25:00,
2013-01-15 12:30:00,25.3,7.0,29.03,SSW,203,4.9,4.9,45,0.00,,---,0.00,VWS V14.01,2013-01-15 18:30:00,
2013-01-15 12:35:00,25.3,6.5,29.03,SW,226,4.9,4.9,44,0.00,,---,0.00,VWS V14.01,2013-01-15 18:35:00,
2013-01-15 12:45:00,25.9,7.5,29.03,WSW,243,4.0,4.0,45,0.00,,---,0.00,VWS V14.01,2013-01-15 18:45:00,
2013-01-15 12:55:00,27.0,8.0,29.03,SE,136,4.9,4.9,44,0.00,,---,0.00,VWS V14.01,2013-01-15 18:55:00,
2013-01-15 13:00:00,27.0,8.0,29.00,WSW,241,5.4,5.4,44,0.00,,---,0.00,VWS V14.01,2013-01-15 19:00:00,
2013-01-15 13:05:00,27.1,8.1,29.00,SSW,210,4.0,4.0,44,0.00,,---,0.00,VWS V14.01,2013-01-15 19:05:00,
2013-01-15 13:15:00,28.2,9.1,29.00,West,264,4.0,4.0,44,0.00,,---,0.00,VWS V14.01,2013-01-15 19:15:00,
2013-01-15 13:20:00,28.6,8.9,29.00,SW,221,3.1,3.1,43,0.00,,---,0.00,VWS V14.01,2013-01-15 19:20:00,
2013-01-15 13:30:00,29.5,9.8,29.00,SSW,199,5.8,5.8,43,0.00,,---,0.00,VWS V14.01,2013-01-15 19:30:00,
2013-01-15 13:35:00,29.5,9.2,29.00,SE,129,3.6,3.6,42,0.00,,---,0.00,VWS V14.01,2013-01-15 19:35:00,
2013-01-15 13:45:00,29.7,9.4,29.00,South,177,8.1,8.1,42,0.00,,---,0.00,VWS V14.01,2013-01-15 19:45:00,
2013-01-15 13:55:00,30.0,10.2,29.00,WSW,249,3.6,3.6,43,0.00,,---,0.00,VWS V14.01,2013-01-15 19:55:00,
2013-01-15 14:05:00,29.7,9.4,29.00,WSW,258,3.1,3.1,42,0.00,,---,0.00,VWS V14.01,2013-01-15 20:05:00,
2013-01-15 14:10:00,30.0,9.7,29.00,SSW,206,5.8,5.8,42,0.00,,---,0.00,VWS V14.01,2013-01-15 20:10:00,
2013-01-15 14:20:00,30.4,10.1,29.00,West,272,5.8,5.8,42,0.00,,---,0.00,VWS V14.01,2013-01-15 20:20:00,
2013-01-15 14:30:00,30.4,9.5,28.97,SW,224,4.0,4.0,41,0.00,,---,0.00,VWS V14.01,2013-01-15 20:30:00,
2013-01-15 14:35:00,30.6,9.7,28.97,West,259,5.8,5.8,41,0.00,,---,0.00,VWS V14.01,2013-01-15 20:35:00,
2013-01-15 14:45:00,30.4,9.5,28.97,SSW,209,5.4,5.4,41,0.00,,---,0.00,VWS V14.01,2013-01-15 20:45:00,
2013-01-15 14:50:00,30.4,9.5,28.97,WSW,237,5.4,5.4,41,0.00,,---,0.00,VWS V14.01,2013-01-15 20:50:00,
2013-01-15 14:55:00,30.4,9.5,28.97,WSW,237,2.7,2.7,41,0.00,,---,0.00,VWS V14.01,2013-01-15 20:55:00,
2013-01-15 15:05:00,30.0,9.7,28.97,WSW,246,2.7,2.7,42,0.00,,---,0.00,VWS V14.01,2013-01-15 21:05:00,
2013-01-15 15:15:00,29.7,9.4,28.97,WSW,252,3.1,3.1,42,0.00,,---,0.00,VWS V14.01,2013-01-15 21:15:00,
2013-01-15 15:20:00,29.7,9.4,28.97,South,191,3.1,3.1,42,0.00,,---,0.00,VWS V14.01,2013-01-15 21:20:00,
2013-01-15 15:30:00,30.0,9.7,28.97,SSW,207,0.0,0.0,42,0.00,,---,0.00,VWS V14.01,2013-01-15 21:30:00,
2013-01-15 15:40:00,29.5,9.2,28.97,SW,215,4.0,4.0,42,0.00,,---,0.00,VWS V14.01,2013-01-15 21:40:00,
2013-01-15 15:50:00,29.7,9.4,28.97,SSE,147,7.6,7.6,42,0.00,,---,0.00,VWS V14.01,2013-01-15 21:50:00,
2013-01-15 15:55:00,29.7,9.4,28.97,SW,227,3.1,3.1,42,0.00,,---,0.00,VWS V14.01,2013-01-15 21:55:00,
2013-01-15 16:05:00,29.7,9.9,28.94,SW,232,2.7,2.7,43,0.00,,---,0.00,VWS V14.01,2013-01-15 22:05:00,
2013-01-15 16:15:00,29.7,9.9,28.94,WSW,253,3.1,3.1,43,0.00,,---,0.00,VWS V14.01,2013-01-15 22:15:00,
2013-01-15 16:25:00,29.3,10.1,28.94,WSW,240,3.1,3.1,44,0.00,,---,0.00,VWS V14.01,2013-01-15 22:25:00,
2013-01-15 16:30:00,29.1,10.4,28.94,WNW,283,3.6,3.6,45,0.00,,---,0.00,VWS V14.01,2013-01-15 22:30:00,
2013-01-15 16:40:00,28.8,10.6,28.94,SW,224,5.4,5.4,46,0.00,,---,0.00,VWS V14.01,2013-01-15 22:40:00,
2013-01-15 16:50:00,28.4,11.2,28.94,SSW,196,2.2,2.2,48,0.00,,---,0.00,VWS V14.01,2013-01-15 22:50:00,
2013-01-15 17:00:00,27.9,11.6,28.94,SSE,166,3.1,3.1,50,0.00,,---,0.00,VWS V14.01,2013-01-15 23:00:00,
2013-01-15 17:05:00,27.7,11.9,28.94,SSE,163,2.7,2.7,51,0.00,,---,0.00,VWS V14.01,2013-01-15 23:05:00,
2013-01-15 17:15:00,27.3,12.0,28.94,SW,230,2.7,2.7,52,0.00,,---,0.00,VWS V14.01,2013-01-15 23:15:00,
2013-01-15 17:25:00,27.0,11.7,28.94,SW,233,5.4,5.4,52,0.00,,---,0.00,VWS V14.01,2013-01-15 23:25:00,
2013-01-15 17:35:00,26.6,11.4,28.94,SSW,201,6.3,6.3,52,0.00,,---,0.00,VWS V14.01,2013-01-15 23:35:00,
2013-01-15 17:40:00,26.6,11.4,28.94,South,180,2.7,2.7,52,0.00,,---,0.00,VWS V14.01,2013-01-15 23:40:00,
2013-01-15 17:50:00,26.2,11.0,28.94,SW,232,0.0,0.0,52,0.00,,---,0.00,VWS V14.01,2013-01-15 23:50:00,
2013-01-15 18:00:00,25.9,10.7,28.91,SSW,212,4.9,4.9,52,0.00,,---,0.00,VWS V14.01,2013-01-16 00:00:00,
2013-01-15 18:10:00,25.7,10.1,28.91,WSW,238,2.7,2.7,51,0.00,,---,0.00,VWS V14.01,2013-01-16 00:10:00,
2013-01-15 18:15:00,25.7,10.1,28.91,SW,222,2.2,2.2,51,0.00,,---,0.00,VWS V14.01,2013-01-16 00:15:00,
2013-01-15 18:25:00,25.3,9.8,28.91,WSW,241,0.0,0.0,51,0.00,,---,0.00,VWS V14.01,2013-01-16 00:25:00,
2013-01-15 18:35:00,25.2,9.1,28.91,SW,225,2.2,2.2,50,0.00,,---,0.00,VWS V14.01,2013-01-16 00:35:00,
2013-01-15 18:45:00,25.0,9.0,28.91,South,183,3.1,3.1,50,0.00,,---,0.00,VWS V14.01,2013-01-16 00:45:00,
2013-01-15 18:55:00,24.6,8.6,28.91,WSW,238,2.7,2.7,50,0.00,,---,0.00,VWS V14.01,2013-01-16 00:55:00,
2013-01-15 19:00:00,24.4,8.5,28.88,WSW,250,3.1,3.1,50,0.00,,---,0.00,VWS V14.01,2013-01-16 01:00:00,
2013-01-15 19:10:00,24.4,8.5,28.88,WSW,240,0.0,0.0,50,0.00,,---,0.00,VWS V14.01,2013-01-16 01:10:00,
2013-01-15 19:20:00,24.1,8.1,28.88,SSW,197,0.0,0.0,50,0.00,,---,0.00,VWS V14.01,2013-01-16 01:20:00,
2013-01-15 19:25:00,23.9,8.0,28.88,SSW,196,0.0,0.0,50,0.00,,---,0.00,VWS V14.01,2013-01-16 01:25:00,
2013-01-15 19:35:00,23.7,7.8,28.88,SE,144,2.7,2.7,50,0.00,,---,0.00,VWS V14.01,2013-01-16 01:35:00,
2013-01-15 19:40:00,23.5,7.7,28.88,South,188,2.2,2.2,50,0.00,,---,0.00,VWS V14.01,2013-01-16 01:40:00,
2013-01-15 19:50:00,23.2,7.8,28.88,South,173,2.2,2.2,51,0.00,,---,0.00,VWS V14.01,2013-01-16 01:50:00,
2013-01-15 20:00:00,23.0,8.0,28.85,SSE,157,4.0,4.0,52,0.00,,---,0.00,VWS V14.01,2013-01-16 02:00:00,
2013-01-15 20:10:00,23.0,8.0,28.85,South,182,2.7,2.7,52,0.00,,---,0.00,VWS V14.01,2013-01-16 02:10:00,
2013-01-15 20:15:00,23.0,8.4,28.85,SSE,164,3.6,3.6,53,0.00,,---,0.00,VWS V14.01,2013-01-16 02:15:00,
2013-01-15 20:20:00,23.0,8.4,28.85,SSE,151,4.0,4.0,53,0.00,,---,0.00,VWS V14.01,2013-01-16 02:20:00,
2013-01-15 20:30:00,23.0,8.4,28.82,SSE,163,2.7,2.7,53,0.00,,---,0.00,VWS V14.01,2013-01-16 02:30:00,
2013-01-15 20:35:00,23.2,8.6,28.82,South,177,3.1,3.1,53,0.00,,---,0.00,VWS V14.01,2013-01-16 02:35:00,
2013-01-15 20:45:00,23.2,8.6,28.82,SSW,208,8.3,8.3,53,0.00,,---,0.00,VWS V14.01,2013-01-16 02:45:00,
2013-01-15 20:55:00,23.5,8.9,28.82,WSW,248,4.5,4.5,53,0.00,,---,0.00,VWS V14.01,2013-01-16 02:55:00,
2013-01-15 21:05:00,23.5,8.9,28.82,SE,143,0.0,0.0,53,0.00,,---,0.00,VWS V14.01,2013-01-16 03:05:00,
2013-01-15 21:10:00,23.5,8.9,28.82,South,184,3.1,3.1,53,0.00,,---,0.00,VWS V14.01,2013-01-16 03:10:00,
2013-01-15 21:15:00,23.5,8.9,28.79,SW,233,3.6,3.6,53,0.00,,---,0.00,VWS V14.01,2013-01-16 03:15:00,
2013-01-15 21:20:00,23.7,9.1,28.79,SSW,203,3.1,3.1,53,0.00,,---,0.00,VWS V14.01,2013-01-16 03:20:00,
2013-01-15 21:30:00,23.7,9.1,28.79,South,171,3.6,3.6,53,0.00,,---,0.00,VWS V14.01,2013-01-16 03:30:00,
2013-01-15 21:40:00,23.7,9.1,28.79,SW,230,5.8,5.8,53,0.00,,---,0.00,VWS V14.01,2013-01-16 03:40:00,
2013-01-15 21:45:00,23.9,9.3,28.79,SW,221,3.1,3.1,53,0.00,,---,0.00,VWS V14.01,2013-01-16 03:45:00,
2013-01-15 21:55:00,23.9,9.3,28.79,South,187,2.7,2.7,53,0.00,,---,0.00,VWS V14.01,2013-01-16 03:55:00,
2013-01-15 22:00:00,23.9,9.3,28.76,WSW,248,3.1,3.1,53,0.00,,---,0.00,VWS V14.01,2013-01-16 04:00:00,
2013-01-15 22:05:00,23.9,9.7,28.76,SW,235,3.6,3.6,54,0.00,,---,0.00,VWS V14.01,2013-01-16 04:05:00,
2013-01-15 22:15:00,23.9,10.1,28.76,WSW,248,3.6,3.6,55,0.00,,---,0.00,VWS V14.01,2013-01-16 04:15:00,
2013-01-15 22:20:00,23.9,10.1,28.76,WSW,247,2.7,2.7,55,0.00,,---,0.00,VWS V14.01,2013-01-16 04:20:00,
2013-01-15 22:30:00,24.1,10.7,28.76,SSE,168,3.1,3.1,56,0.00,,---,0.00,VWS V14.01,2013-01-16 04:30:00,
2013-01-15 22:40:00,24.1,10.7,28.76,West,264,3.6,3.6,56,0.00,,---,0.00,VWS V14.01,2013-01-16 04:40:00,
2013-01-15 22:45:00,24.1,10.7,28.73,SSW,200,3.1,3.1,56,0.00,,---,0.00,VWS V14.01,2013-01-16 04:45:00,
2013-01-15 22:55:00,24.3,10.8,28.73,West,261,4.0,4.0,56,0.00,,---,0.00,VWS V14.01,2013-01-16 04:55:00,
2013-01-15 23:00:00,24.3,10.4,28.73,South,179,2.7,2.7,55,0.00,,---,0.00,VWS V14.01,2013-01-16 05:00:00,
2013-01-15 23:05:00,24.4,10.6,28.73,SSW,195,5.8,5.8,55,0.00,,---,0.00,VWS V14.01,2013-01-16 05:05:00,
2013-01-15 23:15:00,25.2,10.4,28.73,SSW,196,3.6,3.6,53,0.00,,---,0.00,VWS V14.01,2013-01-16 05:15:00,
2013-01-15 23:20:00,25.2,10.4,28.73,SSW,201,6.3,6.3,53,0.00,,---,0.00,VWS V14.01,2013-01-16 05:20:00,
2013-01-15 23:25:00,25.2,10.4,28.73,SW,230,3.6,3.6,53,0.00,,---,0.00,VWS V14.01,2013-01-16 05:25:00,
2013-01-15 23:30:00,25.2,10.4,28.73,South,190,2.7,2.7,53,0.00,,---,0.00,VWS V14.01,2013-01-16 05:30:00,
2013-01-15 23:40:00,25.0,10.7,28.73,WNW,291,5.8,5.8,54,0.00,,---,0.00,VWS V14.01,2013-01-16 05:40:00,
2013-01-15 23:45:00,25.2,10.9,28.70,SW,218,5.4,5.4,54,0.00,,---,0.00,VWS V14.01,2013-01-16 05:45:00,
2013-01-15 23:50:00,25.2,10.9,28.70,WSW,239,7.6,7.6,54,0.00,,---,0.00,VWS V14.01,2013-01-16 05:50:00,